PRIVATE WETTERSTATION BILLIGHEIM-ALLFELD                       ZURCK
Wetterdaten: Montag, 12.05.2014
Datum Zeit Temp. A. Temp. A. min Temp. A. max Feuchte A. Luftdruck Regen Wind Richtung Richtung Sonnenschein ET Solar Taupunkt Windchill Windben Empfang
12.05.2014 00:00 7,1 C 7,1 C 7,1 C 88 % 1010,8 hPa 0,0 l/m 8,0 km/h (2 Bft) SW 225 0 min 0,025 mm 0 W/m 5,2 C 5,8 C 17,7 km/h (3 Bft) 99 %
12.05.2014 00:10 7,2 C 7,1 C 7,2 C 88 % 1010,9 hPa 0,0 l/m 9,7 km/h (2 Bft) SW 225 0 min 0,000 mm 0 W/m 5,3 C 4,7 C 22,5 km/h (4 Bft) 100 %
12.05.2014 00:20 7,4 C 7,2 C 7,4 C 88 % 1011,0 hPa 0,0 l/m 11,3 km/h (2 Bft) SW 225 0 min 0,000 mm 0 W/m 5,5 C 3,9 C 22,5 km/h (4 Bft) 100 %
12.05.2014 00:30 7,6 C 7,4 C 7,6 C 88 % 1010,9 hPa 0,0 l/m 8,0 km/h (2 Bft) W-SW 247 0 min 0,000 mm 0 W/m 5,7 C 6,3 C 20,9 km/h (4 Bft) 99 %
12.05.2014 00:40 7,6 C 7,6 C 7,6 C 88 % 1010,8 hPa 0,0 l/m 9,7 km/h (2 Bft) SW 225 0 min 0,000 mm 0 W/m 5,7 C 5,1 C 20,9 km/h (4 Bft) 100 %
12.05.2014 00:50 7,6 C 7,6 C 7,7 C 88 % 1010,9 hPa 0,0 l/m 9,7 km/h (2 Bft) SW 225 0 min 0,000 mm 0 W/m 5,7 C 5,1 C 22,5 km/h (4 Bft) 100 %
12.05.2014 01:00 7,6 C 7,6 C 7,7 C 88 % 1011,1 hPa 0,0 l/m 11,3 km/h (2 Bft) SW 225 0 min 0,025 mm 0 W/m 5,7 C 4,1 C 20,9 km/h (4 Bft) 100 %
12.05.2014 01:10 7,7 C 7,6 C 7,7 C 88 % 1011,1 hPa 0,0 l/m 9,7 km/h (2 Bft) SW 225 0 min 0,000 mm 0 W/m 5,8 C 5,2 C 25,7 km/h (4 Bft) 100 %
12.05.2014 01:20 7,6 C 7,6 C 7,7 C 88 % 1011,2 hPa 0,0 l/m 9,7 km/h (2 Bft) SW 225 0 min 0,000 mm 0 W/m 5,7 C 5,1 C 29,0 km/h (5 Bft) 99 %
12.05.2014 01:30 7,4 C 7,4 C 7,6 C 88 % 1011,3 hPa 0,0 l/m 11,3 km/h (2 Bft) SW 225 0 min 0,000 mm 0 W/m 5,5 C 3,9 C 22,5 km/h (4 Bft) 100 %
12.05.2014 01:40 7,4 C 7,4 C 7,4 C 88 % 1011,4 hPa 0,0 l/m 8,0 km/h (2 Bft) W-SW 247 0 min 0,000 mm 0 W/m 5,5 C 6,1 C 20,9 km/h (4 Bft) 100 %
12.05.2014 01:50 7,4 C 7,3 C 7,4 C 88 % 1011,5 hPa 0,0 l/m 8,0 km/h (2 Bft) W 270 0 min 0,000 mm 0 W/m 5,5 C 6,1 C 24,1 km/h (4 Bft) 100 %
12.05.2014 02:00 7,4 C 7,4 C 7,4 C 88 % 1011,5 hPa 0,0 l/m 9,7 km/h (2 Bft) W-SW 247 0 min 0,025 mm 0 W/m 5,5 C 4,9 C 20,9 km/h (4 Bft) 100 %
12.05.2014 02:10 7,4 C 7,4 C 7,4 C 88 % 1011,6 hPa 0,0 l/m 11,3 km/h (2 Bft) SW 225 0 min 0,000 mm 0 W/m 5,5 C 3,9 C 24,1 km/h (4 Bft) 99 %
12.05.2014 02:20 7,3 C 7,3 C 7,4 C 87 % 1011,7 hPa 0,0 l/m 9,7 km/h (2 Bft) W-SW 247 0 min 0,000 mm 0 W/m 5,3 C 4,8 C 22,5 km/h (4 Bft) 100 %
12.05.2014 02:30 7,3 C 7,3 C 7,3 C 87 % 1011,8 hPa 0,0 l/m 8,0 km/h (2 Bft) W 270 0 min 0,000 mm 0 W/m 5,3 C 6,0 C 25,7 km/h (4 Bft) 99 %
12.05.2014 02:40 7,2 C 7,2 C 7,3 C 88 % 1011,9 hPa 0,0 l/m 8,0 km/h (2 Bft) W-SW 247 0 min 0,000 mm 0 W/m 5,3 C 5,9 C 20,9 km/h (4 Bft) 100 %
12.05.2014 02:50 7,1 C 7,1 C 7,2 C 88 % 1011,8 hPa 0,0 l/m 8,0 km/h (2 Bft) S-SW 202 0 min 0,000 mm 0 W/m 5,2 C 5,8 C 19,3 km/h (3 Bft) 100 %
12.05.2014 03:00 7,1 C 7,0 C 7,1 C 88 % 1012,0 hPa 0,0 l/m 11,3 km/h (2 Bft) S-SW 202 0 min 0,025 mm 0 W/m 5,2 C 3,6 C 22,5 km/h (4 Bft) 100 %
12.05.2014 03:10 7,1 C 7,1 C 7,1 C 88 % 1012,0 hPa 0,0 l/m 9,7 km/h (2 Bft) S-SW 202 0 min 0,000 mm 0 W/m 5,2 C 4,6 C 24,1 km/h (4 Bft) 100 %
12.05.2014 03:20 7,2 C 7,1 C 7,2 C 88 % 1011,9 hPa 0,0 l/m 6,4 km/h (2 Bft) S-SW 202 0 min 0,000 mm 0 W/m 5,3 C 7,2 C 19,3 km/h (3 Bft) 100 %
12.05.2014 03:30 7,2 C 7,2 C 7,2 C 88 % 1012,0 hPa 0,0 l/m 8,0 km/h (2 Bft) S-SW 202 0 min 0,000 mm 0 W/m 5,3 C 5,9 C 19,3 km/h (3 Bft) 100 %
12.05.2014 03:40 7,1 C 7,1 C 7,2 C 88 % 1011,8 hPa 0,0 l/m 6,4 km/h (2 Bft) S-SW 202 0 min 0,000 mm 0 W/m 5,2 C 7,1 C 14,5 km/h (3 Bft) 95 %
12.05.2014 03:50 6,9 C 6,9 C 7,1 C 88 % 1011,7 hPa 0,0 l/m 6,4 km/h (2 Bft) S-SW 202 0 min 0,000 mm 0 W/m 5,1 C 6,9 C 14,5 km/h (3 Bft) 94 %
12.05.2014 04:00 6,9 C 6,9 C 6,9 C 88 % 1011,7 hPa 0,0 l/m 8,0 km/h (2 Bft) S-SW 202 0 min 0,025 mm 0 W/m 5,1 C 5,6 C 19,3 km/h (3 Bft) 100 %
12.05.2014 04:10 7,0 C 6,9 C 7,0 C 88 % 1011,6 hPa 0,0 l/m 9,7 km/h (2 Bft) S-SW 202 0 min 0,000 mm 0 W/m 5,2 C 4,5 C 22,5 km/h (4 Bft) 99 %
12.05.2014 04:20 7,1 C 7,0 C 7,1 C 88 % 1011,7 hPa 0,0 l/m 8,0 km/h (2 Bft) SW 225 0 min 0,000 mm 0 W/m 5,2 C 5,8 C 17,7 km/h (3 Bft) 99 %
12.05.2014 04:30 7,2 C 7,1 C 7,2 C 88 % 1011,8 hPa 0,0 l/m 8,0 km/h (2 Bft) SW 225 0 min 0,000 mm 0 W/m 5,3 C 5,9 C 20,9 km/h (4 Bft) 99 %
12.05.2014 04:40 7,3 C 7,2 C 7,3 C 88 % 1011,7 hPa 0,0 l/m 6,4 km/h (2 Bft) W-SW 247 0 min 0,000 mm 0 W/m 5,4 C 7,3 C 17,7 km/h (3 Bft) 100 %
12.05.2014 04:50 7,3 C 7,3 C 7,3 C 87 % 1011,7 hPa 0,0 l/m 6,4 km/h (2 Bft) SW 225 0 min 0,000 mm 0 W/m 5,3 C 7,3 C 16,1 km/h (3 Bft) 100 %
12.05.2014 05:00 7,3 C 7,3 C 7,3 C 87 % 1011,7 hPa 0,0 l/m 8,0 km/h (2 Bft) S-SW 202 0 min 0,025 mm 0 W/m 5,3 C 6,0 C 17,7 km/h (3 Bft) 100 %
12.05.2014 05:10 7,4 C 7,3 C 7,4 C 87 % 1011,7 hPa 0,0 l/m 8,0 km/h (2 Bft) S-SW 202 0 min 0,000 mm 0 W/m 5,4 C 6,1 C 20,9 km/h (4 Bft) 100 %
12.05.2014 05:20 7,4 C 7,4 C 7,4 C 87 % 1011,7 hPa 0,0 l/m 4,8 km/h (1 Bft) S-SW 202 0 min 0,000 mm 0 W/m 5,4 C 7,4 C 9,7 km/h (2 Bft) 100 %
12.05.2014 05:30 7,4 C 7,4 C 7,4 C 87 % 1011,6 hPa 0,0 l/m 6,4 km/h (2 Bft) S-SW 202 0 min 0,000 mm 0 W/m 5,4 C 7,4 C 14,5 km/h (3 Bft) 100 %
12.05.2014 05:40 7,4 C 7,4 C 7,4 C 87 % 1011,6 hPa 0,0 l/m 6,4 km/h (2 Bft) SW 225 0 min 0,000 mm 0 W/m 5,4 C 7,4 C 14,5 km/h (3 Bft) 100 %
12.05.2014 05:50 7,4 C 7,4 C 7,4 C 87 % 1011,6 hPa 0,0 l/m 3,2 km/h (1 Bft) S-SW 202 0 min 0,000 mm 0 W/m 5,4 C 7,4 C 8,0 km/h (2 Bft) 100 %
12.05.2014 06:00 7,3 C 7,3 C 7,4 C 87 % 1011,6 hPa 0,0 l/m 3,2 km/h (1 Bft) S-SW 202 0 min 0,000 mm 0 W/m 5,3 C 7,3 C 9,7 km/h (2 Bft) 100 %
12.05.2014 06:10 7,3 C 7,3 C 7,3 C 87 % 1011,6 hPa 0,0 l/m 4,8 km/h (1 Bft) SW 225 0 min 0,000 mm 0 W/m 5,3 C 7,3 C 9,7 km/h (2 Bft) 91 %
12.05.2014 06:20 7,3 C 7,3 C 7,3 C 87 % 1011,8 hPa 0,0 l/m 6,4 km/h (2 Bft) SW 225 0 min 0,000 mm 7 W/m 5,3 C 7,3 C 17,7 km/h (3 Bft) 100 %
12.05.2014 06:30 7,4 C 7,3 C 7,4 C 87 % 1011,8 hPa 0,0 l/m 6,4 km/h (2 Bft) S-SW 202 0 min 0,000 mm 11 W/m 5,4 C 7,4 C 17,7 km/h (3 Bft) 100 %
12.05.2014 06:40 7,4 C 7,4 C 7,5 C 87 % 1011,9 hPa 0,0 l/m 9,7 km/h (2 Bft) SW 225 0 min 0,000 mm 19 W/m 5,4 C 4,9 C 22,5 km/h (4 Bft) 100 %
12.05.2014 06:50 7,6 C 7,4 C 7,6 C 87 % 1011,9 hPa 0,0 l/m 9,7 km/h (2 Bft) SW 225 0 min 0,000 mm 19 W/m 5,6 C 5,1 C 19,3 km/h (3 Bft) 100 %
12.05.2014 07:00 7,6 C 7,6 C 7,6 C 87 % 1012,0 hPa 0,0 l/m 9,7 km/h (2 Bft) SW 225 0 min 0,025 mm 16 W/m 5,6 C 5,1 C 22,5 km/h (4 Bft) 99 %
12.05.2014 07:10 7,7 C 7,6 C 7,7 C 87 % 1012,0 hPa 0,0 l/m 8,0 km/h (2 Bft) SW 225 0 min 0,000 mm 33 W/m 5,7 C 6,4 C 19,3 km/h (3 Bft) 100 %
12.05.2014 07:20 7,7 C 7,7 C 7,7 C 87 % 1012,1 hPa 0,0 l/m 9,7 km/h (2 Bft) SW 225 0 min 0,000 mm 33 W/m 5,7 C 5,2 C 22,5 km/h (4 Bft) 100 %
12.05.2014 07:30 7,8 C 7,7 C 7,8 C 87 % 1012,2 hPa 0,0 l/m 11,3 km/h (2 Bft) SW 225 0 min 0,000 mm 37 W/m 5,8 C 4,4 C 25,7 km/h (4 Bft) 100 %
12.05.2014 07:40 7,8 C 7,8 C 7,8 C 87 % 1012,2 hPa 0,0 l/m 8,0 km/h (2 Bft) SW 225 0 min 0,000 mm 28 W/m 5,8 C 6,5 C 17,7 km/h (3 Bft) 100 %
12.05.2014 07:50 7,8 C 7,8 C 7,8 C 87 % 1012,3 hPa 0,0 l/m 6,4 km/h (2 Bft) SW 225 0 min 0,000 mm 26 W/m 5,8 C 7,8 C 16,1 km/h (3 Bft) 100 %
12.05.2014 08:00 7,8 C 7,8 C 7,8 C 87 % 1012,3 hPa 0,4 l/m 8,0 km/h (2 Bft) SW 225 0 min 0,025 mm 33 W/m 5,8 C 6,5 C 22,5 km/h (4 Bft) 100 %
12.05.2014 08:10 7,6 C 7,6 C 7,8 C 88 % 1012,4 hPa 1,0 l/m 9,7 km/h (2 Bft) SW 225 0 min 0,000 mm 28 W/m 5,7 C 5,1 C 25,7 km/h (4 Bft) 100 %
12.05.2014 08:20 7,4 C 7,4 C 7,6 C 88 % 1012,6 hPa 0,2 l/m 12,9 km/h (3 Bft) SW 225 0 min 0,000 mm 51 W/m 5,5 C 3,0 C 29,0 km/h (5 Bft) 100 %
12.05.2014 08:30 7,3 C 7,3 C 7,4 C 88 % 1012,7 hPa 0,0 l/m 9,7 km/h (2 Bft) W-SW 247 0 min 0,000 mm 84 W/m 5,4 C 4,8 C 24,1 km/h (4 Bft) 100 %
12.05.2014 08:40 7,5 C 7,3 C 7,5 C 88 % 1012,7 hPa 0,0 l/m 8,0 km/h (2 Bft) SW 225 10 min 0,000 mm 172 W/m 5,6 C 6,2 C 25,7 km/h (4 Bft) 91 %
12.05.2014 08:50 7,9 C 7,5 C 7,9 C 88 % 1012,8 hPa 0,0 l/m 11,3 km/h (2 Bft) W-SW 247 10 min 0,000 mm 489 W/m 6,0 C 4,5 C 30,6 km/h (5 Bft) 100 %
12.05.2014 09:00 8,2 C 7,9 C 8,2 C 88 % 1012,8 hPa 0,0 l/m 11,3 km/h (2 Bft) SW 225 10 min 0,051 mm 278 W/m 6,3 C 4,8 C 24,1 km/h (4 Bft) 100 %
12.05.2014 09:10 8,3 C 8,2 C 8,4 C 88 % 1012,9 hPa 0,0 l/m 11,3 km/h (2 Bft) SW 225 10 min 0,000 mm 172 W/m 6,4 C 4,9 C 27,4 km/h (4 Bft) 100 %
12.05.2014 09:20 8,3 C 8,3 C 8,3 C 87 % 1012,9 hPa 0,0 l/m 11,3 km/h (2 Bft) SW 225 0 min 0,000 mm 146 W/m 6,3 C 4,9 C 27,4 km/h (4 Bft) 100 %
12.05.2014 09:30 8,4 C 8,3 C 8,4 C 87 % 1012,8 hPa 0,0 l/m 15,8 km/h (3 Bft) SW 219 10 min 0,000 mm 155 W/m 6,4 C 2,8 C 27,4 km/h (4 Bft) 100 %
12.05.2014 09:40 9,3 C 8,4 C 9,3 C 86 % 1012,7 hPa 0,0 l/m 16,8 km/h (3 Bft) SW 221 10 min 0,000 mm 726 W/m 7,1 C 3,5 C 33,8 km/h (5 Bft) 97 %
12.05.2014 09:50 9,2 C 9,2 C 9,3 C 85 % 1012,8 hPa 0,0 l/m 18,6 km/h (3 Bft) SW 217 10 min 0,000 mm 329 W/m 6,8 C 2,7 C 41,8 km/h (6 Bft) 98 %
12.05.2014 10:00 9,9 C 9,2 C 9,9 C 84 % 1012,9 hPa 0,0 l/m 15,6 km/h (3 Bft) W 280 10 min 0,130 mm 234 W/m 7,3 C 4,8 C 32,2 km/h (5 Bft) 97 %
12.05.2014 10:10 10,0 C 9,9 C 10,1 C 81 % 1012,7 hPa 0,0 l/m 11,1 km/h (2 Bft) W 265 10 min 0,000 mm 178 W/m 6,9 C 7,0 C 25,7 km/h (4 Bft) 97 %
12.05.2014 10:20 9,4 C 9,4 C 10,0 C 82 % 1013,1 hPa 0,0 l/m 16,6 km/h (3 Bft) W 259 10 min 0,000 mm 250 W/m 6,5 C 3,7 C 37,0 km/h (5 Bft) 98 %
12.05.2014 10:30 9,4 C 9,2 C 9,4 C 85 % 1012,8 hPa 0,0 l/m 13,4 km/h (3 Bft) W-SW 255 10 min 0,000 mm 714 W/m 7,0 C 5,1 C 29,0 km/h (5 Bft) 98 %
12.05.2014 10:40 10,1 C 9,4 C 10,1 C 81 % 1012,7 hPa 0,0 l/m 11,3 km/h (2 Bft) W 259 10 min 0,000 mm 251 W/m 7,0 C 7,0 C 27,4 km/h (4 Bft) 99 %
12.05.2014 10:50 9,9 C 9,9 C 10,1 C 79 % 1012,7 hPa 0,0 l/m 14,5 km/h (3 Bft) W-SW 257 0 min 0,000 mm 93 W/m 6,4 C 5,2 C 37,0 km/h (5 Bft) 100 %
12.05.2014 11:00 8,8 C 8,8 C 9,9 C 81 % 1012,9 hPa 0,8 l/m 15,6 km/h (3 Bft) N-NW 332 0 min 0,152 mm 139 W/m 5,7 C 3,4 C 38,6 km/h (5 Bft) 100 %
12.05.2014 11:10 8,8 C 8,5 C 8,8 C 87 % 1012,8 hPa 0,0 l/m 10,4 km/h (2 Bft) W-SW 240 10 min 0,000 mm 724 W/m 6,8 C 6,0 C 29,0 km/h (5 Bft) 100 %
12.05.2014 11:20 9,7 C 8,8 C 9,7 C 86 % 1012,8 hPa 0,0 l/m 13,9 km/h (3 Bft) W 279 10 min 0,000 mm 744 W/m 7,5 C 5,3 C 30,6 km/h (5 Bft) 99 %
12.05.2014 11:30 10,6 C 9,7 C 10,6 C 80 % 1012,4 hPa 0,0 l/m 12,8 km/h (3 Bft) W 272 10 min 0,000 mm 796 W/m 7,3 C 6,8 C 37,0 km/h (5 Bft) 100 %
12.05.2014 11:40 11,0 C 10,6 C 11,0 C 78 % 1012,3 hPa 0,0 l/m 16,9 km/h (3 Bft) W-SW 238 10 min 0,000 mm 809 W/m 7,3 C 5,6 C 33,8 km/h (5 Bft) 100 %
12.05.2014 11:50 11,2 C 11,0 C 11,2 C 76 % 1012,4 hPa 0,0 l/m 13,9 km/h (3 Bft) W-SW 251 10 min 0,000 mm 970 W/m 7,1 C 7,0 C 29,0 km/h (5 Bft) 100 %
12.05.2014 12:00 11,6 C 11,2 C 11,6 C 76 % 1012,4 hPa 0,0 l/m 12,6 km/h (3 Bft) NW 309 10 min 0,331 mm 983 W/m 7,5 C 8,1 C 29,0 km/h (5 Bft) 100 %
12.05.2014 12:10 11,9 C 11,6 C 11,9 C 73 % 1012,4 hPa 0,0 l/m 12,5 km/h (3 Bft) SW 234 10 min 0,000 mm 1093 W/m 7,2 C 8,5 C 30,6 km/h (5 Bft) 100 %
12.05.2014 12:20 11,7 C 11,7 C 11,9 C 72 % 1012,4 hPa 0,0 l/m 15,8 km/h (3 Bft) W 261 0 min 0,000 mm 141 W/m 6,8 C 6,9 C 37,0 km/h (5 Bft) 100 %
12.05.2014 12:30 11,1 C 11,1 C 11,7 C 72 % 1012,4 hPa 0,0 l/m 12,3 km/h (3 Bft) S-SW 194 10 min 0,000 mm 279 W/m 6,2 C 7,6 C 27,4 km/h (4 Bft) 99 %
12.05.2014 12:40 11,4 C 11,0 C 11,4 C 72 % 1012,3 hPa 0,0 l/m 10,4 km/h (2 Bft) W-NW 298 10 min 0,000 mm 782 W/m 6,5 C 8,9 C 25,7 km/h (4 Bft) 99 %
12.05.2014 12:50 12,1 C 11,4 C 12,1 C 73 % 1012,2 hPa 0,0 l/m 12,4 km/h (3 Bft) SW 225 10 min 0,000 mm 997 W/m 7,4 C 8,8 C 29,0 km/h (5 Bft) 100 %
12.05.2014 13:00 12,8 C 12,1 C 12,8 C 69 % 1012,2 hPa 0,0 l/m 12,7 km/h (3 Bft) SW 224 10 min 0,330 mm 1042 W/m 7,3 C 9,4 C 32,2 km/h (5 Bft) 100 %
12.05.2014 13:10 12,9 C 12,8 C 12,9 C 61 % 1012,3 hPa 0,0 l/m 18,8 km/h (3 Bft) W-NW 286 10 min 0,000 mm 446 W/m 5,6 C 7,4 C 41,8 km/h (6 Bft) 100 %
12.05.2014 13:20 13,1 C 12,9 C 13,1 C 61 % 1012,1 hPa 0,0 l/m 14,7 km/h (3 Bft) NW 314 10 min 0,000 mm 225 W/m 5,8 C 9,0 C 33,8 km/h (5 Bft) 100 %
12.05.2014 13:30 12,4 C 12,4 C 13,1 C 62 % 1012,2 hPa 0,0 l/m 14,6 km/h (3 Bft) NW 304 0 min 0,000 mm 95 W/m 5,3 C 8,2 C 35,4 km/h (5 Bft) 100 %
12.05.2014 13:40 11,4 C 11,4 C 12,4 C 71 % 1012,3 hPa 0,0 l/m 15,0 km/h (3 Bft) S-SW 196 10 min 0,000 mm 501 W/m 6,3 C 6,8 C 37,0 km/h (5 Bft) 100 %
12.05.2014 13:50 11,7 C 11,4 C 11,7 C 73 % 1012,3 hPa 0,0 l/m 12,8 km/h (3 Bft) SW 232 10 min 0,000 mm 1144 W/m 7,0 C 8,1 C 24,1 km/h (4 Bft) 100 %
12.05.2014 14:00 12,3 C 11,7 C 12,3 C 71 % 1012,3 hPa 0,0 l/m 15,9 km/h (3 Bft) W 261 10 min 0,330 mm 881 W/m 7,2 C 7,6 C 33,8 km/h (5 Bft) 100 %
12.05.2014 14:10 12,6 C 12,3 C 12,6 C 68 % 1012,2 hPa 0,0 l/m 18,1 km/h (3 Bft) W-SW 243 10 min 0,000 mm 838 W/m 6,9 C 7,2 C 33,8 km/h (5 Bft) 100 %
12.05.2014 14:20 12,5 C 12,5 C 12,6 C 70 % 1012,0 hPa 0,0 l/m 19,7 km/h (3 Bft) W-SW 247 10 min 0,000 mm 380 W/m 7,2 C 6,6 C 38,6 km/h (5 Bft) 100 %
12.05.2014 14:30 12,3 C 12,3 C 12,5 C 68 % 1012,1 hPa 0,0 l/m 15,0 km/h (3 Bft) S 180 0 min 0,000 mm 79 W/m 6,6 C 7,9 C 32,2 km/h (5 Bft) 100 %
12.05.2014 14:40 11,6 C 11,6 C 12,3 C 75 % 1012,3 hPa 0,0 l/m 14,8 km/h (3 Bft) SW 219 10 min 0,000 mm 455 W/m 7,3 C 7,2 C 32,2 km/h (5 Bft) 100 %
12.05.2014 14:50 11,8 C 11,5 C 11,8 C 72 % 1012,0 hPa 0,0 l/m 13,1 km/h (3 Bft) W 275 10 min 0,000 mm 554 W/m 6,9 C 8,1 C 27,4 km/h (4 Bft) 100 %
12.05.2014 15:00 12,5 C 11,8 C 12,5 C 72 % 1012,1 hPa 0,0 l/m 13,8 km/h (3 Bft) S-SW 202 10 min 0,330 mm 770 W/m 7,6 C 8,6 C 27,4 km/h (4 Bft) 100 %
12.05.2014 15:10 12,8 C 12,5 C 12,8 C 69 % 1012,1 hPa 0,0 l/m 17,3 km/h (3 Bft) S-SW 196 10 min 0,000 mm 710 W/m 7,3 C 7,7 C 40,2 km/h (6 Bft) 100 %
12.05.2014 15:20 12,9 C 12,8 C 12,9 C 68 % 1012,1 hPa 0,0 l/m 17,0 km/h (3 Bft) S-SW 195 10 min 0,000 mm 281 W/m 7,1 C 8,0 C 33,8 km/h (5 Bft) 100 %
12.05.2014 15:30 13,2 C 12,8 C 13,2 C 72 % 1011,9 hPa 0,0 l/m 14,8 km/h (3 Bft) SW 235 10 min 0,000 mm 914 W/m 8,3 C 9,1 C 27,4 km/h (4 Bft) 100 %
12.05.2014 15:40 13,4 C 13,2 C 13,6 C 71 % 1011,8 hPa 0,0 l/m 15,4 km/h (3 Bft) S-SW 209 10 min 0,000 mm 236 W/m 8,3 C 9,1 C 27,4 km/h (4 Bft) 99 %
12.05.2014 15:50 12,4 C 12,4 C 13,4 C 72 % 1011,7 hPa 0,0 l/m 19,0 km/h (3 Bft) S-SW 206 10 min 0,000 mm 290 W/m 7,5 C 6,7 C 37,0 km/h (5 Bft) 100 %
12.05.2014 16:00 12,7 C 12,3 C 12,7 C 72 % 1011,5 hPa 0,0 l/m 17,7 km/h (3 Bft) S-SW 193 10 min 0,356 mm 698 W/m 7,8 C 7,5 C 33,8 km/h (5 Bft) 100 %
12.05.2014 16:10 12,9 C 12,7 C 12,9 C 69 % 1011,5 hPa 0,0 l/m 16,6 km/h (3 Bft) S-SW 213 10 min 0,000 mm 649 W/m 7,4 C 8,1 C 33,8 km/h (5 Bft) 100 %
12.05.2014 16:20 13,2 C 12,9 C 13,2 C 69 % 1011,5 hPa 0,0 l/m 15,5 km/h (3 Bft) W-SW 246 10 min 0,000 mm 677 W/m 7,6 C 8,8 C 30,6 km/h (5 Bft) 100 %
12.05.2014 16:30 13,4 C 13,2 C 13,4 C 68 % 1011,7 hPa 0,0 l/m 14,9 km/h (3 Bft) SW 215 10 min 0,000 mm 406 W/m 7,6 C 9,3 C 27,4 km/h (4 Bft) 100 %
12.05.2014 16:40 12,9 C 12,9 C 13,4 C 68 % 1011,8 hPa 0,0 l/m 14,1 km/h (3 Bft) SW 229 10 min 0,000 mm 160 W/m 7,1 C 9,0 C 24,1 km/h (4 Bft) 100 %
12.05.2014 16:50 12,3 C 12,3 C 12,9 C 70 % 1012,2 hPa 0,0 l/m 15,2 km/h (3 Bft) NW 306 0 min 0,000 mm 60 W/m 7,0 C 7,8 C 29,0 km/h (5 Bft) 100 %
12.05.2014 17:00 10,8 C 10,8 C 12,3 C 77 % 1012,2 hPa 1,0 l/m 10,5 km/h (2 Bft) W-SW 256 0 min 0,203 mm 32 W/m 6,9 C 8,2 C 22,5 km/h (4 Bft) 100 %
12.05.2014 17:10 9,7 C 9,7 C 10,8 C 80 % 1012,0 hPa 2,0 l/m 5,3 km/h (1 Bft) SW 223 10 min 0,000 mm 186 W/m 6,4 C 9,7 C 11,3 km/h (2 Bft) 99 %
12.05.2014 17:20 9,7 C 9,4 C 9,7 C 86 % 1011,7 hPa 0,2 l/m 4,3 km/h (1 Bft) W-SW 248 10 min 0,000 mm 195 W/m 7,5 C 9,7 C 11,3 km/h (2 Bft) 100 %
12.05.2014 17:30 10,2 C 9,7 C 10,2 C 86 % 1011,6 hPa 0,0 l/m 4,0 km/h (1 Bft) S-SO 160 10 min 0,000 mm 218 W/m 8,0 C 10,2 C 8,0 km/h (2 Bft) 100 %
12.05.2014 17:40 10,2 C 10,2 C 10,3 C 84 % 1011,6 hPa 0,0 l/m 3,7 km/h (1 Bft) SW 216 10 min 0,000 mm 207 W/m 7,6 C 10,2 C 8,0 km/h (2 Bft) 100 %
12.05.2014 17:50 10,4 C 10,2 C 10,4 C 83 % 1011,5 hPa 0,0 l/m 1,1 km/h (1 Bft) S-SW 211 10 min 0,000 mm 223 W/m 7,6 C 10,4 C 6,4 km/h (2 Bft) 100 %
12.05.2014 18:00 10,7 C 10,4 C 10,7 C 84 % 1011,5 hPa 0,0 l/m 1,6 km/h (1 Bft) SW 221 10 min 0,102 mm 209 W/m 8,1 C 10,7 C 8,0 km/h (2 Bft) 100 %
12.05.2014 18:10 11,0 C 10,7 C 11,0 C 81 % 1011,7 hPa 0,0 l/m 4,9 km/h (1 Bft) W-SW 241 10 min 0,000 mm 209 W/m 7,9 C 11,0 C 16,1 km/h (3 Bft) 100 %
12.05.2014 18:20 11,2 C 11,0 C 11,2 C 79 % 1011,7 hPa 0,0 l/m 5,1 km/h (1 Bft) W-SW 257 10 min 0,000 mm 158 W/m 7,7 C 11,2 C 11,3 km/h (2 Bft) 100 %
12.05.2014 18:30 11,3 C 11,2 C 11,3 C 79 % 1011,7 hPa 0,0 l/m 5,9 km/h (2 Bft) W-SW 245 10 min 0,000 mm 153 W/m 7,8 C 11,3 C 14,5 km/h (3 Bft) 100 %
12.05.2014 18:40 11,2 C 11,2 C 11,3 C 78 % 1011,7 hPa 0,0 l/m 5,3 km/h (1 Bft) W-SW 254 0 min 0,000 mm 134 W/m 7,5 C 11,2 C 19,3 km/h (3 Bft) 100 %
12.05.2014 18:50 11,1 C 11,1 C 11,2 C 78 % 1011,7 hPa 0,0 l/m 4,7 km/h (1 Bft) W-SW 251 0 min 0,000 mm 91 W/m 7,4 C 11,1 C 17,7 km/h (3 Bft) 99 %
12.05.2014 19:00 10,9 C 10,9 C 11,1 C 78 % 1011,8 hPa 0,0 l/m 4,8 km/h (1 Bft) SW 215 0 min 0,076 mm 62 W/m 7,2 C 10,9 C 16,1 km/h (3 Bft) 100 %
12.05.2014 19:10 10,8 C 10,8 C 10,9 C 77 % 1012,0 hPa 0,0 l/m 8,0 km/h (2 Bft) SW 221 0 min 0,000 mm 51 W/m 6,9 C 9,7 C 25,7 km/h (4 Bft) 100 %
12.05.2014 19:20 10,7 C 10,7 C 10,8 C 78 % 1012,0 hPa 0,0 l/m 5,4 km/h (1 Bft) SW 233 0 min 0,000 mm 74 W/m 7,0 C 10,7 C 16,1 km/h (3 Bft) 100 %
12.05.2014 19:30 10,7 C 10,6 C 10,8 C 77 % 1012,0 hPa 0,0 l/m 6,4 km/h (2 Bft) S 185 0 min 0,000 mm 39 W/m 6,8 C 10,7 C 14,5 km/h (3 Bft) 99 %
12.05.2014 19:40 10,6 C 10,6 C 10,7 C 77 % 1012,0 hPa 0,0 l/m 9,3 km/h (2 Bft) SW 225 0 min 0,000 mm 40 W/m 6,7 C 8,7 C 20,9 km/h (4 Bft) 99 %
12.05.2014 19:50 10,6 C 10,5 C 10,6 C 76 % 1012,0 hPa 0,0 l/m 9,0 km/h (2 Bft) S-SW 211 0 min 0,000 mm 25 W/m 6,5 C 8,8 C 24,1 km/h (4 Bft) 100 %
12.05.2014 20:00 10,5 C 10,5 C 10,6 C 75 % 1012,1 hPa 0,0 l/m 14,9 km/h (3 Bft) S-SW 203 0 min 0,051 mm 18 W/m 6,3 C 5,8 C 30,6 km/h (5 Bft) 100 %
12.05.2014 20:10 10,3 C 10,3 C 10,5 C 77 % 1012,1 hPa 0,0 l/m 11,1 km/h (2 Bft) W 259 0 min 0,000 mm 16 W/m 6,4 C 7,3 C 27,4 km/h (4 Bft) 100 %
12.05.2014 20:20 10,1 C 10,1 C 10,3 C 77 % 1012,2 hPa 0,0 l/m 12,5 km/h (3 Bft) S-SW 212 0 min 0,000 mm 16 W/m 6,3 C 6,4 C 32,2 km/h (5 Bft) 100 %
12.05.2014 20:30 9,8 C 9,8 C 10,1 C 78 % 1012,2 hPa 0,0 l/m 8,1 km/h (2 Bft) W-NW 290 0 min 0,000 mm 9 W/m 6,1 C 8,6 C 17,7 km/h (3 Bft) 100 %
12.05.2014 20:40 9,6 C 9,6 C 9,8 C 78 % 1012,3 hPa 0,0 l/m 8,0 km/h (2 Bft) SW 223 0 min 0,000 mm 5 W/m 6,0 C 8,4 C 20,9 km/h (4 Bft) 100 %
12.05.2014 20:50 9,5 C 9,5 C 9,6 C 79 % 1012,3 hPa 0,0 l/m 6,9 km/h (2 Bft) W-SW 250 0 min 0,000 mm 0 W/m 6,0 C 9,1 C 16,1 km/h (3 Bft) 100 %
12.05.2014 21:00 9,3 C 9,3 C 9,5 C 79 % 1012,5 hPa 0,0 l/m 8,8 km/h (2 Bft) S-SW 198 0 min 0,025 mm 0 W/m 5,8 C 7,6 C 17,7 km/h (3 Bft) 100 %
12.05.2014 21:10 9,2 C 9,2 C 9,3 C 80 % 1012,5 hPa 0,0 l/m 8,0 km/h (2 Bft) S-SW 202 0 min 0,000 mm 0 W/m 5,9 C 8,0 C 17,7 km/h (3 Bft) 97 %
12.05.2014 21:20 9,2 C 9,1 C 9,2 C 80 % 1012,6 hPa 0,0 l/m 9,7 km/h (2 Bft) S-SW 202 0 min 0,000 mm 0 W/m 5,9 C 6,9 C 19,3 km/h (3 Bft) 86 %
12.05.2014 21:30 9,1 C 9,1 C 9,2 C 80 % 1012,7 hPa 0,0 l/m 6,4 km/h (2 Bft) SW 225 0 min 0,000 mm 0 W/m 5,8 C 9,1 C 14,5 km/h (3 Bft) 98 %
12.05.2014 21:40 9,0 C 9,0 C 9,1 C 81 % 1012,8 hPa 0,0 l/m 6,4 km/h (2 Bft) SW 225 0 min 0,000 mm 0 W/m 5,9 C 9,0 C 16,1 km/h (3 Bft) 97 %
12.05.2014 21:50 9,0 C 9,0 C 9,1 C 81 % 1012,9 hPa 0,0 l/m 4,8 km/h (1 Bft) SW 225 0 min 0,000 mm 0 W/m 5,9 C 9,0 C 11,3 km/h (2 Bft) 97 %
12.05.2014 22:00 8,9 C 8,9 C 9,0 C 81 % 1013,0 hPa 0,0 l/m 3,2 km/h (1 Bft) SW 225 0 min 0,025 mm 0 W/m 5,8 C 8,9 C 12,9 km/h (3 Bft) 98 %
12.05.2014 22:10 8,8 C 8,8 C 8,9 C 81 % 1013,0 hPa 0,0 l/m 4,8 km/h (1 Bft) W-SW 247 0 min 0,000 mm 0 W/m 5,7 C 8,8 C 11,3 km/h (2 Bft) 98 %
12.05.2014 22:20 8,6 C 8,6 C 8,8 C 81 % 1013,0 hPa 0,0 l/m 3,2 km/h (1 Bft) W-SW 247 0 min 0,000 mm 0 W/m 5,5 C 8,6 C 14,5 km/h (3 Bft) 97 %
12.05.2014 22:30 8,5 C 8,5 C 8,6 C 82 % 1013,2 hPa 0,0 l/m 4,8 km/h (1 Bft) W-SW 247 0 min 0,000 mm 0 W/m 5,6 C 8,5 C 20,9 km/h (4 Bft) 98 %
12.05.2014 22:40 8,4 C 8,4 C 8,5 C 82 % 1013,3 hPa 0,0 l/m 9,7 km/h (2 Bft) SW 225 0 min 0,000 mm 0 W/m 5,5 C 6,0 C 19,3 km/h (3 Bft) 97 %
12.05.2014 22:50 8,3 C 8,3 C 8,4 C 82 % 1013,3 hPa 0,0 l/m 6,4 km/h (2 Bft) SW 225 0 min 0,000 mm 0 W/m 5,4 C 8,3 C 14,5 km/h (3 Bft) 98 %
12.05.2014 23:00 8,2 C 8,2 C 8,3 C 82 % 1013,3 hPa 0,0 l/m 6,4 km/h (2 Bft) SW 225 0 min 0,025 mm 0 W/m 5,3 C 8,2 C 20,9 km/h (4 Bft) 97 %
12.05.2014 23:10 8,1 C 8,1 C 8,2 C 82 % 1013,5 hPa 0,0 l/m 4,8 km/h (1 Bft) SW 225 0 min 0,000 mm 0 W/m 5,2 C 8,1 C 14,5 km/h (3 Bft) 98 %
12.05.2014 23:20 8,0 C 8,0 C 8,1 C 82 % 1013,5 hPa 0,0 l/m 8,0 km/h (2 Bft) SW 225 0 min 0,000 mm 0 W/m 5,1 C 6,8 C 17,7 km/h (3 Bft) 97 %
12.05.2014 23:30 7,9 C 7,9 C 8,1 C 82 % 1013,7 hPa 0,0 l/m 6,4 km/h (2 Bft) W-SW 247 0 min 0,000 mm 0 W/m 5,0 C 7,9 C 17,7 km/h (3 Bft) 98 %
12.05.2014 23:40 7,9 C 7,9 C 7,9 C 83 % 1013,6 hPa 0,0 l/m 8,0 km/h (2 Bft) SW 225 0 min 0,000 mm 0 W/m 5,2 C 6,6 C 19,3 km/h (3 Bft) 97 %
12.05.2014 23:50 7,9 C 7,8 C 7,9 C 83 % 1013,7 hPa 0,0 l/m 6,4 km/h (2 Bft) SW 225 0 min 0,000 mm 0 W/m 5,2 C 7,9 C 14,5 km/h (3 Bft) 97 %
_ Min-Zeit 03:50 03:50 04:00 13:10 00:00 - 17:50 - - - - - 23:30 09:50 17:50 21:20
Minimum _ 6,9 C 6,9 C 6,9 C 61 % 1010,8 hPa - 1,1 km/h (1 Bft) - - - - - 5,0 C 2,7 C 6,4 km/h (2 Bft) 86 %
_ Max-Zeit 15:40 15:40 15:40 00:00 23:30 17:10 14:20 - - 08:40 16:00 13:50 15:30 18:30 09:50 01:00
Maximum _ 13,6 C 13,2 C 13,6 C 88 % 1013,7 hPa 2,0 l/m 19,7 km/h
W-SW (3 Bft)
- - 10 min 0,356 mm 1144 W/m 8,3 C 11,3 C 41,8 km/h
S-SW (6 Bft)
100 %
Durchschnitt _ 9,4 C 9,2 C 9,5 C 81 % 1012,1 hPa #5,6 l/m 10,0 km/h (2 Bft) SW - #8:40 h #2,717 mm 321 W/m 6,2 C 7,1 C 23,1 km/h (4 Bft) 99 %
PRIVATE WETTERSTATION BILLIGHEIM-ALLFELD - www.neckar-odenwald-wetter.de - Holger Sonntag